AirNav   Pilot Hours Calculator
 
 1427 users online  

MU01 Dogwood Canyon Heliport
Blue Eye, Missouri, USA

GOING TO BLUE EYE?


FAA INFORMATION EFFECTIVE 28 FEBRUARY 2019

Location

FAA Identifier: MU01
Lat/Long: 36-29-57.2360N / 093-27-30.6690W
36-29.953933N / 093-27.511150W
36.4992322 / -93.4585192
(estimated)
Elevation: 1240 ft. / 378 m (estimated)
Variation: 04E (1990)
From city: 7 miles W of BLUE EYE, MO
Time zone: UTC -6 (UTC -5 during Daylight Saving Time)
Zip code: 65681

Heliport Operations

Heliport use: Private use. Permission required prior to landing
Activation date: 10/1993
Control tower: no
ARTCC: KANSAS CITY CENTER
FSS: COLUMBIA FLIGHT SERVICE STATION
Attendance: UNATNDD
Segmented circle: no

Heliport Communications

WX AWOS-3 at FWB (12 nm N): 119.725 (417-272-3922)
WX AWOS-3 at BBG (13 nm E): 124.625 (417-334-0218)

Nearby radio navigation aids

VOR radial/distance  VOR name  Freq  Var
HROr309/16.1HARRISON VOR/DME112.5004E
RZCr061/35.4RAZORBACK VORTAC116.4004E

Heliport Services

Runway Information

Helipad H1

Dimensions: 60 x 60 ft. / 18 x 18 m
Surface: turf
Traffic pattern: leftleft

Heliport Ownership and Management from official FAA records

Ownership: Privately-owned
Owner: FINLEY RIVER PROPERTIES, INC.
1935 S CAMPBELL
SPRINGFIELD, MO 65898
Phone 417-887-1915
Manager: SUSIE HENRY
1935 S CAMPBELL
SPRINGFIELD, MO 65898
Phone 417-887-1915

Instrument Procedures

There are no published instrument procedures at MU01.

Some nearby airports with instrument procedures:

4M1 - Carroll County Airport (11 nm SW)
KFWB - Branson West Municipal Airport - Emerson Field (12 nm N)
KBBG - Branson Airport (13 nm E)
KPLK - M Graham Clark Downtown Airport (13 nm NE)
KHRO - Boone County Airport (20 nm SE)
 
Loc | Ops | Rwys | IFR | FBO | Links
Com | Nav | Svcs | Stats | Notes

Kansas City Aviation Department
 
Area around MU01 (Dogwood Canyon Heliport)
 
Road maps at: MapQuest Bing Google
 
Aerial photo
No photo
 
Sectional chart

 
Airport distance calculator
Flying to Dogwood Canyon Heliport? Find the distance to fly.

From to MU01

Sunrise and sunset
Times for 25-Mar-2019
 Local
(UTC-5)
 Zulu
(UTC)
Morning civil twilight06:4511:45
Sunrise07:1112:11
Sunset19:2900:29
Evening civil twilight19:5400:54

Current date and time
Zulu (UTC)  25-Mar-2019 15:15:18
Local (UTC-5)  25-Mar-2019 10:15:18
 
METAR
KFWB 
12nm N 
251455Z AUTO 33008KT 10SM BKN014 OVC020 10/09 A3016 RMK AO2
KBBG 
13nm E 
251452Z 33008KT 10SM BKN013 OVC034 10/09 A3015
KHRO 
20nm SE 
251453Z AUTO 31007KT 10SM OVC011 10/07 A3014 RMK AO2 SLP203 T01000072 53020 TSNO
TAF
KBBG 
13nm E 
251120Z 2512/2612 32006KT P6SM BKN030 FM251400 34008KT P6SM OVC020 FM260600 VRB04KT P6SM OVC035
NOTAMs
Click for the latest NOTAMs
NOTAMs are issued by the DoD/FAA and will open in a separate window not controlled by AirNav.

 

 
 

Would you like to see your business listed on this page?

 If your business provides an interesting product or service to pilots, flight crews, aircraft, or users of the Dogwood Canyon Heliport, you should consider listing it here.  To start the listing process, click on the button below
 
Add a business
 

Other Pages about Dogwood Canyon Heliport

Update a link
 
Copyright © AirNav, LLC. All rights reserved. Privacy Policy  Contact